sensor_id;sensor_type;location;lat;lon;timestamp;P1;durP1;ratioP1;P2;durP2;ratioP2
52974;SDS011;38839;45.186;5.720;2023-04-03T00:00:59;0.40;;;0.40;;
52974;SDS011;38839;45.186;5.720;2023-04-03T00:03:25;0.50;;;0.50;;
52974;SDS011;38839;45.186;5.720;2023-04-03T00:05:50;0.50;;;0.40;;
52974;SDS011;38839;45.186;5.720;2023-04-03T00:08:16;0.30;;;0.30;;
52974;SDS011;38839;45.186;5.720;2023-04-03T00:10:41;0.45;;;0.30;;
52974;SDS011;38839;45.186;5.720;2023-04-03T00:13:07;1.23;;;0.25;;
52974;SDS011;38839;45.186;5.720;2023-04-03T00:15:34;0.47;;;0.38;;
52974;SDS011;38839;45.186;5.720;2023-04-03T00:18:01;0.30;;;0.30;;
52974;SDS011;38839;45.186;5.720;2023-04-03T00:20:27;0.82;;;0.40;;
52974;SDS011;38839;45.186;5.720;2023-04-03T00:22:53;0.50;;;0.40;;
52974;SDS011;38839;45.186;5.720;2023-04-03T00:25:18;1.45;;;0.43;;
52974;SDS011;38839;45.186;5.720;2023-04-03T00:27:44;0.30;;;0.30;;
52974;SDS011;38839;45.186;5.720;2023-04-03T00:30:10;0.43;;;0.22;;
52974;SDS011;38839;45.186;5.720;2023-04-03T00:32:38;0.40;;;0.40;;
52974;SDS011;38839;45.186;5.720;2023-04-03T00:35:03;1.25;;;0.30;;
52974;SDS011;38839;45.186;5.720;2023-04-03T00:37:29;0.25;;;0.25;;
52974;SDS011;38839;45.186;5.720;2023-04-03T00:39:55;0.50;;;0.50;;
52974;SDS011;38839;45.186;5.720;2023-04-03T00:42:21;1.48;;;0.40;;
52974;SDS011;38839;45.186;5.720;2023-04-03T00:47:12;0.30;;;0.20;;
52974;SDS011;38839;45.186;5.720;2023-04-03T00:49:40;0.30;;;0.30;;
52974;SDS011;38839;45.186;5.720;2023-04-03T00:52:08;0.20;;;0.20;;
52974;SDS011;38839;45.186;5.720;2023-04-03T00:54:38;0.30;;;0.30;;
52974;SDS011;38839;45.186;5.720;2023-04-03T00:57:06;0.22;;;0.22;;
52974;SDS011;38839;45.186;5.720;2023-04-03T00:59:34;2.38;;;0.88;;
52974;SDS011;38839;45.186;5.720;2023-04-03T01:02:03;3.53;;;1.70;;
52974;SDS011;38839;45.186;5.720;2023-04-03T01:07:04;9.55;;;2.95;;
52974;SDS011;38839;45.186;5.720;2023-04-03T01:09:38;2.75;;;1.50;;
52974;SDS011;38839;45.186;5.720;2023-04-03T01:14:49;4.38;;;1.13;;
52974;SDS011;38839;45.186;5.720;2023-04-03T01:17:30;3.45;;;0.85;;
52974;SDS011;38839;45.186;5.720;2023-04-03T01:23:22;1.50;;;0.50;;
52974;SDS011;38839;45.186;5.720;2023-04-03T01:25:27;1.48;;;0.50;;
52974;SDS011;38839;45.186;5.720;2023-04-03T01:27:53;1.33;;;0.80;;
52974;SDS011;38839;45.186;5.720;2023-04-03T01:30:19;0.95;;;0.55;;
52974;SDS011;38839;45.186;5.720;2023-04-03T01:32:48;2.17;;;1.05;;
52974;SDS011;38839;45.186;5.720;2023-04-03T01:35:14;2.97;;;0.98;;
52974;SDS011;38839;45.186;5.720;2023-04-03T01:37:39;10.73;;;2.53;;
52974;SDS011;38839;45.186;5.720;2023-04-03T01:40:05;10.85;;;3.25;;
52974;SDS011;38839;45.186;5.720;2023-04-03T01:42:32;7.38;;;2.72;;
52974;SDS011;38839;45.186;5.720;2023-04-03T01:44:57;6.75;;;2.60;;
52974;SDS011;38839;45.186;5.720;2023-04-03T01:47:22;6.15;;;1.70;;
52974;SDS011;38839;45.186;5.720;2023-04-03T01:49:48;10.57;;;2.80;;
52974;SDS011;38839;45.186;5.720;2023-04-03T01:52:13;8.68;;;2.97;;
52974;SDS011;38839;45.186;5.720;2023-04-03T01:54:39;5.65;;;1.92;;
52974;SDS011;38839;45.186;5.720;2023-04-03T01:57:04;6.43;;;1.85;;
52974;SDS011;38839;45.186;5.720;2023-04-03T01:59:30;5.38;;;1.70;;
52974;SDS011;38839;45.186;5.720;2023-04-03T02:01:55;2.78;;;0.90;;
52974;SDS011;38839;45.186;5.720;2023-04-03T02:04:21;2.22;;;1.05;;
52974;SDS011;38839;45.186;5.720;2023-04-03T02:06:47;1.58;;;0.82;;
52974;SDS011;38839;45.186;5.720;2023-04-03T02:09:13;0.60;;;0.50;;
52974;SDS011;38839;45.186;5.720;2023-04-03T02:11:39;0.82;;;0.60;;
52974;SDS011;38839;45.186;5.720;2023-04-03T02:14:05;0.82;;;0.70;;
52974;SDS011;38839;45.186;5.720;2023-04-03T02:16:31;0.55;;;0.47;;
52974;SDS011;38839;45.186;5.720;2023-04-03T02:18:56;0.93;;;0.77;;
52974;SDS011;38839;45.186;5.720;2023-04-03T02:21:22;2.40;;;0.85;;
52974;SDS011;38839;45.186;5.720;2023-04-03T02:23:48;1.85;;;0.70;;
52974;SDS011;38839;45.186;5.720;2023-04-03T02:26:14;1.88;;;0.90;;
52974;SDS011;38839;45.186;5.720;2023-04-03T02:28:41;1.10;;;0.73;;
52974;SDS011;38839;45.186;5.720;2023-04-03T02:31:07;0.93;;;0.60;;
52974;SDS011;38839;45.186;5.720;2023-04-03T02:33:33;2.42;;;0.68;;
52974;SDS011;38839;45.186;5.720;2023-04-03T02:36:01;1.95;;;0.60;;
52974;SDS011;38839;45.186;5.720;2023-04-03T02:38:29;0.90;;;0.77;;
52974;SDS011;38839;45.186;5.720;2023-04-03T02:40:59;0.60;;;0.60;;
52974;SDS011;38839;45.186;5.720;2023-04-03T02:43:25;0.90;;;0.47;;
52974;SDS011;38839;45.186;5.720;2023-04-03T02:45:51;0.70;;;0.70;;
52974;SDS011;38839;45.186;5.720;2023-04-03T02:48:16;0.88;;;0.65;;
52974;SDS011;38839;45.186;5.720;2023-04-03T02:50:42;0.52;;;0.52;;
52974;SDS011;38839;45.186;5.720;2023-04-03T02:53:07;1.00;;;0.70;;
52974;SDS011;38839;45.186;5.720;2023-04-03T02:55:33;0.60;;;0.60;;
52974;SDS011;38839;45.186;5.720;2023-04-03T02:57:58;0.80;;;0.80;;
52974;SDS011;38839;45.186;5.720;2023-04-03T03:00:23;0.80;;;0.80;;
52974;SDS011;38839;45.186;5.720;2023-04-03T03:02:49;0.65;;;0.65;;
52974;SDS011;38839;45.186;5.720;2023-04-03T03:05:14;0.57;;;0.52;;
52974;SDS011;38839;45.186;5.720;2023-04-03T03:07:40;0.70;;;0.45;;
52974;SDS011;38839;45.186;5.720;2023-04-03T03:10:05;0.60;;;0.50;;
52974;SDS011;38839;45.186;5.720;2023-04-03T03:12:31;0.52;;;0.52;;
52974;SDS011;38839;45.186;5.720;2023-04-03T03:14:56;0.70;;;0.70;;
52974;SDS011;38839;45.186;5.720;2023-04-03T03:17:22;0.70;;;0.65;;
52974;SDS011;38839;45.186;5.720;2023-04-03T03:19:47;1.02;;;0.95;;
52974;SDS011;38839;45.186;5.720;2023-04-03T03:22:13;1.30;;;0.82;;
52974;SDS011;38839;45.186;5.720;2023-04-03T03:24:38;0.70;;;0.70;;
52974;SDS011;38839;45.186;5.720;2023-04-03T03:27:04;0.70;;;0.70;;
52974;SDS011;38839;45.186;5.720;2023-04-03T03:29:29;0.80;;;0.80;;
52974;SDS011;38839;45.186;5.720;2023-04-03T03:31:55;0.80;;;0.80;;
52974;SDS011;38839;45.186;5.720;2023-04-03T03:34:20;0.70;;;0.70;;
52974;SDS011;38839;45.186;5.720;2023-04-03T03:36:45;1.33;;;0.80;;
52974;SDS011;38839;45.186;5.720;2023-04-03T03:39:11;0.80;;;0.80;;
52974;SDS011;38839;45.186;5.720;2023-04-03T03:41:36;1.00;;;0.90;;
52974;SDS011;38839;45.186;5.720;2023-04-03T03:44:02;1.27;;;0.90;;
52974;SDS011;38839;45.186;5.720;2023-04-03T03:46:27;1.05;;;0.70;;
52974;SDS011;38839;45.186;5.720;2023-04-03T03:48:52;1.77;;;0.90;;
52974;SDS011;38839;45.186;5.720;2023-04-03T03:51:18;0.80;;;0.80;;
52974;SDS011;38839;45.186;5.720;2023-04-03T03:53:43;1.95;;;1.00;;
52974;SDS011;38839;45.186;5.720;2023-04-03T03:56:08;0.82;;;0.82;;
52974;SDS011;38839;45.186;5.720;2023-04-03T03:58:34;1.05;;;1.05;;
52974;SDS011;38839;45.186;5.720;2023-04-03T04:01:01;1.75;;;1.00;;
52974;SDS011;38839;45.186;5.720;2023-04-03T04:05:55;1.10;;;1.00;;
52974;SDS011;38839;45.186;5.720;2023-04-03T04:08:21;1.02;;;1.02;;
52974;SDS011;38839;45.186;5.720;2023-04-03T04:10:46;1.38;;;1.27;;
52974;SDS011;38839;45.186;5.720;2023-04-03T04:13:12;1.40;;;1.30;;
52974;SDS011;38839;45.186;5.720;2023-04-03T04:15:37;2.42;;;1.40;;
52974;SDS011;38839;45.186;5.720;2023-04-03T04:18:02;1.50;;;1.40;;
52974;SDS011;38839;45.186;5.720;2023-04-03T04:20:28;1.60;;;1.50;;
52974;SDS011;38839;45.186;5.720;2023-04-03T04:22:53;1.50;;;1.40;;
52974;SDS011;38839;45.186;5.720;2023-04-03T04:25:19;1.70;;;1.60;;
52974;SDS011;38839;45.186;5.720;2023-04-03T04:27:44;1.70;;;1.60;;
52974;SDS011;38839;45.186;5.720;2023-04-03T04:30:10;2.10;;;1.90;;
52974;SDS011;38839;45.186;5.720;2023-04-03T04:32:36;1.98;;;1.75;;
52974;SDS011;38839;45.186;5.720;2023-04-03T04:35:02;1.73;;;1.63;;
52974;SDS011;38839;45.186;5.720;2023-04-03T04:37:28;1.90;;;1.80;;
52974;SDS011;38839;45.186;5.720;2023-04-03T04:39:54;1.98;;;1.88;;
52974;SDS011;38839;45.186;5.720;2023-04-03T04:42:20;1.80;;;1.70;;
52974;SDS011;38839;45.186;5.720;2023-04-03T04:44:45;2.08;;;1.90;;
52974;SDS011;38839;45.186;5.720;2023-04-03T04:47:11;2.35;;;1.75;;
52974;SDS011;38839;45.186;5.720;2023-04-03T04:49:36;2.10;;;1.98;;
52974;SDS011;38839;45.186;5.720;2023-04-03T04:52:01;1.85;;;1.75;;
52974;SDS011;38839;45.186;5.720;2023-04-03T04:54:27;4.05;;;1.75;;
52974;SDS011;38839;45.186;5.720;2023-04-03T04:56:52;2.08;;;1.92;;
52974;SDS011;38839;45.186;5.720;2023-04-03T04:59:17;1.92;;;1.83;;
52974;SDS011;38839;45.186;5.720;2023-04-03T05:01:43;1.80;;;1.70;;
52974;SDS011;38839;45.186;5.720;2023-04-03T05:04:08;2.30;;;2.10;;
52974;SDS011;38839;45.186;5.720;2023-04-03T05:06:34;2.00;;;1.90;;
52974;SDS011;38839;45.186;5.720;2023-04-03T05:09:00;1.85;;;1.67;;
52974;SDS011;38839;45.186;5.720;2023-04-03T05:11:26;1.90;;;1.80;;
52974;SDS011;38839;45.186;5.720;2023-04-03T05:13:51;1.88;;;1.77;;
52974;SDS011;38839;45.186;5.720;2023-04-03T05:16:17;2.50;;;2.10;;
52974;SDS011;38839;45.186;5.720;2023-04-03T05:18:42;1.80;;;1.70;;
52974;SDS011;38839;45.186;5.720;2023-04-03T05:21:08;2.63;;;1.50;;
52974;SDS011;38839;45.186;5.720;2023-04-03T05:23:33;2.15;;;1.95;;
52974;SDS011;38839;45.186;5.720;2023-04-03T05:25:58;2.03;;;1.60;;
52974;SDS011;38839;45.186;5.720;2023-04-03T05:28:24;1.60;;;1.45;;
52974;SDS011;38839;45.186;5.720;2023-04-03T05:30:56;1.70;;;1.60;;
52974;SDS011;38839;45.186;5.720;2023-04-03T05:33:22;1.63;;;1.52;;
52974;SDS011;38839;45.186;5.720;2023-04-03T05:35:49;3.30;;;1.92;;
52974;SDS011;38839;45.186;5.720;2023-04-03T05:38:15;1.70;;;1.60;;
52974;SDS011;38839;45.186;5.720;2023-04-03T05:40:40;1.73;;;1.63;;
52974;SDS011;38839;45.186;5.720;2023-04-03T05:43:05;2.13;;;1.80;;
52974;SDS011;38839;45.186;5.720;2023-04-03T05:45:31;1.50;;;1.40;;
52974;SDS011;38839;45.186;5.720;2023-04-03T05:47:56;2.10;;;1.80;;
52974;SDS011;38839;45.186;5.720;2023-04-03T05:50:22;1.85;;;1.70;;
52974;SDS011;38839;45.186;5.720;2023-04-03T05:52:48;2.20;;;2.00;;
52974;SDS011;38839;45.186;5.720;2023-04-03T05:55:16;2.28;;;1.80;;
52974;SDS011;38839;45.186;5.720;2023-04-03T05:57:42;1.77;;;1.67;;
52974;SDS011;38839;45.186;5.720;2023-04-03T06:00:07;2.65;;;2.10;;
52974;SDS011;38839;45.186;5.720;2023-04-03T06:02:34;2.08;;;1.98;;
52974;SDS011;38839;45.186;5.720;2023-04-03T06:05:00;1.80;;;1.70;;
52974;SDS011;38839;45.186;5.720;2023-04-03T06:07:26;3.33;;;2.17;;
52974;SDS011;38839;45.186;5.720;2023-04-03T06:09:53;2.90;;;2.08;;
52974;SDS011;38839;45.186;5.720;2023-04-03T06:12:21;1.83;;;1.67;;
52974;SDS011;38839;45.186;5.720;2023-04-03T06:14:47;1.52;;;1.42;;
52974;SDS011;38839;45.186;5.720;2023-04-03T06:17:13;2.00;;;1.90;;
52974;SDS011;38839;45.186;5.720;2023-04-03T06:19:40;1.55;;;1.45;;
52974;SDS011;38839;45.186;5.720;2023-04-03T06:22:05;1.48;;;1.38;;
52974;SDS011;38839;45.186;5.720;2023-04-03T06:24:31;1.60;;;1.50;;
52974;SDS011;38839;45.186;5.720;2023-04-03T06:26:57;1.70;;;1.60;;
52974;SDS011;38839;45.186;5.720;2023-04-03T06:29:23;2.22;;;1.75;;
52974;SDS011;38839;45.186;5.720;2023-04-03T06:31:49;2.55;;;2.10;;
52974;SDS011;38839;45.186;5.720;2023-04-03T06:34:15;5.40;;;2.00;;
52974;SDS011;38839;45.186;5.720;2023-04-03T06:36:41;1.60;;;1.38;;
52974;SDS011;38839;45.186;5.720;2023-04-03T06:39:08;1.25;;;1.15;;
52974;SDS011;38839;45.186;5.720;2023-04-03T06:44:03;1.10;;;1.00;;
52974;SDS011;38839;45.186;5.720;2023-04-03T06:46:28;2.28;;;0.82;;
52974;SDS011;38839;45.186;5.720;2023-04-03T06:48:54;0.85;;;0.85;;
52974;SDS011;38839;45.186;5.720;2023-04-03T06:53:49;0.68;;;0.68;;
52974;SDS011;38839;45.186;5.720;2023-04-03T06:56:16;0.95;;;0.60;;
52974;SDS011;38839;45.186;5.720;2023-04-03T06:58:42;1.05;;;0.70;;
52974;SDS011;38839;45.186;5.720;2023-04-03T07:01:09;0.73;;;0.50;;
52974;SDS011;38839;45.186;5.720;2023-04-03T07:03:36;0.43;;;0.43;;
52974;SDS011;38839;45.186;5.720;2023-04-03T07:06:02;0.52;;;0.50;;
52974;SDS011;38839;45.186;5.720;2023-04-03T07:08:29;1.67;;;0.60;;
52974;SDS011;38839;45.186;5.720;2023-04-03T07:10:55;0.57;;;0.57;;
52974;SDS011;38839;45.186;5.720;2023-04-03T07:13:21;1.58;;;0.65;;
52974;SDS011;38839;45.186;5.720;2023-04-03T07:15:46;0.38;;;0.38;;
52974;SDS011;38839;45.186;5.720;2023-04-03T07:18:11;0.70;;;0.60;;
52974;SDS011;38839;45.186;5.720;2023-04-03T07:20:38;1.65;;;0.50;;
52974;SDS011;38839;45.186;5.720;2023-04-03T07:23:03;0.60;;;0.50;;
52974;SDS011;38839;45.186;5.720;2023-04-03T07:25:29;0.50;;;0.50;;
52974;SDS011;38839;45.186;5.720;2023-04-03T07:27:55;0.60;;;0.60;;
52974;SDS011;38839;45.186;5.720;2023-04-03T07:30:21;0.80;;;0.70;;
52974;SDS011;38839;45.186;5.720;2023-04-03T07:32:47;1.17;;;0.40;;
52974;SDS011;38839;45.186;5.720;2023-04-03T07:35:12;0.60;;;0.60;;
52974;SDS011;38839;45.186;5.720;2023-04-03T07:37:38;0.40;;;0.40;;
52974;SDS011;38839;45.186;5.720;2023-04-03T07:40:03;0.80;;;0.80;;
52974;SDS011;38839;45.186;5.720;2023-04-03T07:42:30;0.75;;;0.70;;
52974;SDS011;38839;45.186;5.720;2023-04-03T07:44:55;1.00;;;0.88;;
52974;SDS011;38839;45.186;5.720;2023-04-03T07:47:21;0.60;;;0.60;;
52974;SDS011;38839;45.186;5.720;2023-04-03T07:49:46;0.80;;;0.77;;
52974;SDS011;38839;45.186;5.720;2023-04-03T07:52:13;1.08;;;0.80;;
52974;SDS011;38839;45.186;5.720;2023-04-03T07:54:40;0.73;;;0.73;;
52974;SDS011;38839;45.186;5.720;2023-04-03T07:57:06;0.75;;;0.75;;
52974;SDS011;38839;45.186;5.720;2023-04-03T07:59:32;0.82;;;0.80;;
52974;SDS011;38839;45.186;5.720;2023-04-03T08:01:58;3.53;;;1.30;;
52974;SDS011;38839;45.186;5.720;2023-04-03T08:04:23;1.17;;;1.08;;
52974;SDS011;38839;45.186;5.720;2023-04-03T08:06:49;1.10;;;1.00;;
52974;SDS011;38839;45.186;5.720;2023-04-03T08:09:16;1.15;;;1.05;;
52974;SDS011;38839;45.186;5.720;2023-04-03T08:11:41;1.88;;;1.30;;
52974;SDS011;38839;45.186;5.720;2023-04-03T08:14:07;1.77;;;1.42;;
52974;SDS011;38839;45.186;5.720;2023-04-03T08:16:33;1.45;;;1.35;;
52974;SDS011;38839;45.186;5.720;2023-04-03T08:18:58;2.80;;;1.38;;
52974;SDS011;38839;45.186;5.720;2023-04-03T08:21:24;1.55;;;1.30;;
52974;SDS011;38839;45.186;5.720;2023-04-03T08:23:50;1.65;;;1.30;;
52974;SDS011;38839;45.186;5.720;2023-04-03T08:26:17;1.50;;;1.40;;
52974;SDS011;38839;45.186;5.720;2023-04-03T08:28:44;3.95;;;1.45;;
52974;SDS011;38839;45.186;5.720;2023-04-03T08:31:11;1.52;;;1.30;;
52974;SDS011;38839;45.186;5.720;2023-04-03T08:33:38;1.50;;;1.40;;
52974;SDS011;38839;45.186;5.720;2023-04-03T08:36:05;1.33;;;1.23;;
52974;SDS011;38839;45.186;5.720;2023-04-03T08:38:32;1.92;;;1.35;;
52974;SDS011;38839;45.186;5.720;2023-04-03T08:41:05;2.47;;;1.70;;
52974;SDS011;38839;45.186;5.720;2023-04-03T08:46:10;1.73;;;1.63;;
52974;SDS011;38839;45.186;5.720;2023-04-03T08:48:41;2.53;;;1.75;;
52974;SDS011;38839;45.186;5.720;2023-04-03T08:53:46;1.95;;;1.75;;
52974;SDS011;38839;45.186;5.720;2023-04-03T08:56:23;1.67;;;1.58;;
52974;SDS011;38839;45.186;5.720;2023-04-03T08:58:55;1.92;;;1.80;;
52974;SDS011;38839;45.186;5.720;2023-04-03T09:01:24;2.20;;;1.75;;
52974;SDS011;38839;45.186;5.720;2023-04-03T09:03:54;3.05;;;1.85;;
52974;SDS011;38839;45.186;5.720;2023-04-03T09:06:23;2.13;;;1.92;;
52974;SDS011;38839;45.186;5.720;2023-04-03T09:11:26;1.65;;;1.55;;
52974;SDS011;38839;45.186;5.720;2023-04-03T09:14:13;1.50;;;1.40;;
52974;SDS011;38839;45.186;5.720;2023-04-03T09:16:49;1.70;;;1.60;;
52974;SDS011;38839;45.186;5.720;2023-04-03T09:24:36;1.98;;;1.77;;
52974;SDS011;38839;45.186;5.720;2023-04-03T09:27:04;1.52;;;1.42;;
52974;SDS011;38839;45.186;5.720;2023-04-03T09:29:32;7.53;;;1.95;;
52974;SDS011;38839;45.186;5.720;2023-04-03T09:32:09;1.58;;;1.48;;
52974;SDS011;38839;45.186;5.720;2023-04-03T09:34:45;1.73;;;1.63;;
52974;SDS011;38839;45.186;5.720;2023-04-03T09:37:12;2.00;;;1.73;;
52974;SDS011;38839;45.186;5.720;2023-04-03T09:40:02;1.90;;;1.70;;
52974;SDS011;38839;45.186;5.720;2023-04-03T09:42:29;2.90;;;1.60;;
52974;SDS011;38839;45.186;5.720;2023-04-03T09:47:26;1.98;;;1.60;;
52974;SDS011;38839;45.186;5.720;2023-04-03T09:50:17;1.50;;;1.40;;
52974;SDS011;38839;45.186;5.720;2023-04-03T09:52:46;1.50;;;1.40;;
52974;SDS011;38839;45.186;5.720;2023-04-03T09:57:43;2.05;;;1.50;;
52974;SDS011;38839;45.186;5.720;2023-04-03T10:00:20;2.30;;;1.70;;
52974;SDS011;38839;45.186;5.720;2023-04-03T10:02:46;2.13;;;1.73;;
52974;SDS011;38839;45.186;5.720;2023-04-03T10:10:35;2.05;;;1.85;;
52974;SDS011;38839;45.186;5.720;2023-04-03T10:13:04;2.30;;;1.38;;
52974;SDS011;38839;45.186;5.720;2023-04-03T10:15:35;2.55;;;1.90;;
52974;SDS011;38839;45.186;5.720;2023-04-03T10:18:08;2.72;;;1.52;;
52974;SDS011;38839;45.186;5.720;2023-04-03T10:20:53;2.90;;;1.20;;
52974;SDS011;38839;45.186;5.720;2023-04-03T10:23:24;1.63;;;1.38;;
52974;SDS011;38839;45.186;5.720;2023-04-03T10:26:02;2.97;;;1.40;;
52974;SDS011;38839;45.186;5.720;2023-04-03T10:28:46;2.45;;;1.30;;
52974;SDS011;38839;45.186;5.720;2023-04-03T10:39:28;3.80;;;1.35;;
52974;SDS011;38839;45.186;5.720;2023-04-03T10:42:50;1.90;;;1.10;;
52974;SDS011;38839;45.186;5.720;2023-04-03T10:48:04;1.58;;;1.30;;
52974;SDS011;38839;45.186;5.720;2023-04-03T10:59:30;1.42;;;1.00;;
52974;SDS011;38839;45.186;5.720;2023-04-03T11:02:01;2.28;;;0.90;;
52974;SDS011;38839;45.186;5.720;2023-04-03T11:04:34;1.02;;;0.90;;
52974;SDS011;38839;45.186;5.720;2023-04-03T11:07:16;1.92;;;0.95;;
52974;SDS011;38839;45.186;5.720;2023-04-03T11:09:47;1.73;;;0.85;;
52974;SDS011;38839;45.186;5.720;2023-04-03T11:12:21;0.80;;;0.80;;
52974;SDS011;38839;45.186;5.720;2023-04-03T11:14:51;0.88;;;0.82;;
52974;SDS011;38839;45.186;5.720;2023-04-03T11:35:24;1.10;;;0.90;;
52974;SDS011;38839;45.186;5.720;2023-04-03T11:37:51;0.75;;;0.75;;
52974;SDS011;38839;45.186;5.720;2023-04-03T11:40:28;0.88;;;0.70;;
52974;SDS011;38839;45.186;5.720;2023-04-03T11:48:04;0.73;;;0.70;;
52974;SDS011;38839;45.186;5.720;2023-04-03T11:50:48;0.93;;;0.70;;
52974;SDS011;38839;45.186;5.720;2023-04-03T11:58:16;2.25;;;0.98;;
52974;SDS011;38839;45.186;5.720;2023-04-03T12:00:54;1.35;;;1.25;;
52974;SDS011;38839;45.186;5.720;2023-04-03T12:05:53;1.17;;;0.88;;
52974;SDS011;38839;45.186;5.720;2023-04-03T12:16:05;1.05;;;0.80;;
52974;SDS011;38839;45.186;5.720;2023-04-03T12:29:58;2.13;;;0.88;;
52974;SDS011;38839;45.186;5.720;2023-04-03T12:45:48;1.65;;;1.08;;
52974;SDS011;38839;45.186;5.720;2023-04-03T12:48:25;1.00;;;0.80;;
52974;SDS011;38839;45.186;5.720;2023-04-03T12:50:51;1.35;;;0.85;;
52974;SDS011;38839;45.186;5.720;2023-04-03T12:53:27;1.70;;;1.23;;
52974;SDS011;38839;45.186;5.720;2023-04-03T12:56:19;2.35;;;1.35;;
52974;SDS011;38839;45.186;5.720;2023-04-03T12:58:50;2.25;;;1.23;;
52974;SDS011;38839;45.186;5.720;2023-04-03T13:01:17;2.00;;;1.45;;
52974;SDS011;38839;45.186;5.720;2023-04-03T13:03:54;1.73;;;1.38;;
52974;SDS011;38839;45.186;5.720;2023-04-03T13:06:30;3.20;;;1.70;;
52974;SDS011;38839;45.186;5.720;2023-04-03T13:09:00;1.85;;;1.70;;
52974;SDS011;38839;45.186;5.720;2023-04-03T13:11:30;2.10;;;1.90;;
52974;SDS011;38839;45.186;5.720;2023-04-03T13:14:03;2.20;;;2.00;;
52974;SDS011;38839;45.186;5.720;2023-04-03T13:16:31;1.77;;;1.60;;
52974;SDS011;38839;45.186;5.720;2023-04-03T13:18:58;3.17;;;1.92;;
52974;SDS011;38839;45.186;5.720;2023-04-03T13:21:26;2.70;;;1.48;;
52974;SDS011;38839;45.186;5.720;2023-04-03T13:23:57;2.70;;;2.03;;
52974;SDS011;38839;45.186;5.720;2023-04-03T13:26:29;3.78;;;2.10;;
52974;SDS011;38839;45.186;5.720;2023-04-03T13:29:02;2.05;;;1.80;;
52974;SDS011;38839;45.186;5.720;2023-04-03T13:31:31;3.97;;;1.90;;
52974;SDS011;38839;45.186;5.720;2023-04-03T13:36:32;2.13;;;1.75;;
52974;SDS011;38839;45.186;5.720;2023-04-03T13:39:02;1.98;;;1.77;;
52974;SDS011;38839;45.186;5.720;2023-04-03T13:41:38;1.80;;;1.60;;
52974;SDS011;38839;45.186;5.720;2023-04-03T13:46:46;2.65;;;1.60;;
52974;SDS011;38839;45.186;5.720;2023-04-03T13:51:45;2.17;;;1.90;;
52974;SDS011;38839;45.186;5.720;2023-04-03T13:54:20;2.80;;;1.80;;
52974;SDS011;38839;45.186;5.720;2023-04-03T13:56:55;1.90;;;1.80;;
52974;SDS011;38839;45.186;5.720;2023-04-03T13:59:24;4.45;;;2.00;;
52974;SDS011;38839;45.186;5.720;2023-04-03T14:04:29;1.88;;;1.70;;
52974;SDS011;38839;45.186;5.720;2023-04-03T14:06:56;2.63;;;1.95;;
52974;SDS011;38839;45.186;5.720;2023-04-03T14:09:22;2.33;;;1.80;;
52974;SDS011;38839;45.186;5.720;2023-04-03T14:11:49;2.95;;;1.90;;
52974;SDS011;38839;45.186;5.720;2023-04-03T14:14:22;2.95;;;2.17;;
52974;SDS011;38839;45.186;5.720;2023-04-03T14:16:53;2.13;;;1.92;;
52974;SDS011;38839;45.186;5.720;2023-04-03T14:19:22;2.47;;;2.20;;
52974;SDS011;38839;45.186;5.720;2023-04-03T14:21:50;2.25;;;2.05;;
52974;SDS011;38839;45.186;5.720;2023-04-03T14:24:17;3.72;;;2.38;;
52974;SDS011;38839;45.186;5.720;2023-04-03T14:26:44;2.75;;;2.20;;
52974;SDS011;38839;45.186;5.720;2023-04-03T14:29:11;2.72;;;2.05;;
52974;SDS011;38839;45.186;5.720;2023-04-03T14:31:38;2.35;;;2.15;;
52974;SDS011;38839;45.186;5.720;2023-04-03T14:34:04;2.85;;;2.20;;
52974;SDS011;38839;45.186;5.720;2023-04-03T14:36:29;2.35;;;2.03;;
52974;SDS011;38839;45.186;5.720;2023-04-03T14:38:56;2.80;;;2.10;;
52974;SDS011;38839;45.186;5.720;2023-04-03T14:41:23;2.88;;;2.28;;
52974;SDS011;38839;45.186;5.720;2023-04-03T14:43:51;2.22;;;1.98;;
52974;SDS011;38839;45.186;5.720;2023-04-03T14:46:18;2.60;;;2.30;;
52974;SDS011;38839;45.186;5.720;2023-04-03T14:48:47;3.58;;;2.42;;
52974;SDS011;38839;45.186;5.720;2023-04-03T14:51:13;2.50;;;2.17;;
52974;SDS011;38839;45.186;5.720;2023-04-03T14:53:40;2.88;;;2.05;;
52974;SDS011;38839;45.186;5.720;2023-04-03T14:56:11;3.55;;;2.25;;
52974;SDS011;38839;45.186;5.720;2023-04-03T14:58:47;3.10;;;1.85;;
52974;SDS011;38839;45.186;5.720;2023-04-03T15:01:15;2.15;;;1.88;;
52974;SDS011;38839;45.186;5.720;2023-04-03T15:03:42;3.30;;;2.03;;
52974;SDS011;38839;45.186;5.720;2023-04-03T15:06:11;2.60;;;2.20;;
52974;SDS011;38839;45.186;5.720;2023-04-03T15:08:38;2.90;;;1.92;;
52974;SDS011;38839;45.186;5.720;2023-04-03T15:11:06;2.10;;;1.90;;
52974;SDS011;38839;45.186;5.720;2023-04-03T15:13:31;4.68;;;1.77;;
52974;SDS011;38839;45.186;5.720;2023-04-03T15:15:57;2.83;;;2.00;;
52974;SDS011;38839;45.186;5.720;2023-04-03T15:18:23;4.55;;;2.47;;
52974;SDS011;38839;45.186;5.720;2023-04-03T15:20:53;2.90;;;1.80;;
52974;SDS011;38839;45.186;5.720;2023-04-03T15:23:20;2.95;;;2.20;;
52974;SDS011;38839;45.186;5.720;2023-04-03T15:25:50;3.20;;;2.22;;
52974;SDS011;38839;45.186;5.720;2023-04-03T15:28:18;4.15;;;2.05;;
52974;SDS011;38839;45.186;5.720;2023-04-03T15:30:53;1.92;;;1.73;;
52974;SDS011;38839;45.186;5.720;2023-04-03T15:33:18;2.30;;;1.90;;
52974;SDS011;38839;45.186;5.720;2023-04-03T15:35:44;3.38;;;2.15;;
52974;SDS011;38839;45.186;5.720;2023-04-03T15:38:09;2.80;;;2.50;;
52974;SDS011;38839;45.186;5.720;2023-04-03T15:40:35;3.00;;;2.10;;
52974;SDS011;38839;45.186;5.720;2023-04-03T15:43:01;3.38;;;2.00;;
52974;SDS011;38839;45.186;5.720;2023-04-03T15:45:30;6.68;;;2.63;;
52974;SDS011;38839;45.186;5.720;2023-04-03T15:47:56;2.53;;;1.90;;
52974;SDS011;38839;45.186;5.720;2023-04-03T15:50:23;1.95;;;1.70;;
52974;SDS011;38839;45.186;5.720;2023-04-03T15:52:49;2.42;;;1.92;;
52974;SDS011;38839;45.186;5.720;2023-04-03T15:55:19;2.10;;;1.90;;
52974;SDS011;38839;45.186;5.720;2023-04-03T15:57:46;3.92;;;2.10;;
52974;SDS011;38839;45.186;5.720;2023-04-03T16:00:11;3.60;;;1.83;;
52974;SDS011;38839;45.186;5.720;2023-04-03T16:02:37;2.65;;;2.03;;
52974;SDS011;38839;45.186;5.720;2023-04-03T16:05:03;1.88;;;1.67;;
52974;SDS011;38839;45.186;5.720;2023-04-03T16:07:28;1.88;;;1.67;;
52974;SDS011;38839;45.186;5.720;2023-04-03T16:09:54;1.92;;;1.77;;
52974;SDS011;38839;45.186;5.720;2023-04-03T16:12:19;3.63;;;2.17;;
52974;SDS011;38839;45.186;5.720;2023-04-03T16:14:45;2.17;;;1.77;;
52974;SDS011;38839;45.186;5.720;2023-04-03T16:17:10;2.00;;;1.63;;
52974;SDS011;38839;45.186;5.720;2023-04-03T16:19:36;2.33;;;1.95;;
52974;SDS011;38839;45.186;5.720;2023-04-03T16:22:01;3.13;;;2.25;;
52974;SDS011;38839;45.186;5.720;2023-04-03T16:24:27;2.42;;;2.10;;
52974;SDS011;38839;45.186;5.720;2023-04-03T16:26:52;2.15;;;1.83;;
52974;SDS011;38839;45.186;5.720;2023-04-03T16:29:18;2.13;;;1.70;;
52974;SDS011;38839;45.186;5.720;2023-04-03T16:31:43;2.13;;;1.50;;
52974;SDS011;38839;45.186;5.720;2023-04-03T16:34:09;1.98;;;1.73;;
52974;SDS011;38839;45.186;5.720;2023-04-03T16:36:34;1.85;;;1.63;;
52974;SDS011;38839;45.186;5.720;2023-04-03T16:39:00;3.30;;;2.03;;
52974;SDS011;38839;45.186;5.720;2023-04-03T16:41:25;2.33;;;1.80;;
52974;SDS011;38839;45.186;5.720;2023-04-03T16:43:51;2.15;;;1.63;;
52974;SDS011;38839;45.186;5.720;2023-04-03T16:46:16;2.63;;;1.70;;
52974;SDS011;38839;45.186;5.720;2023-04-03T16:48:41;2.55;;;1.92;;
52974;SDS011;38839;45.186;5.720;2023-04-03T16:51:07;3.33;;;1.60;;
52974;SDS011;38839;45.186;5.720;2023-04-03T16:53:32;4.72;;;1.50;;
52974;SDS011;38839;45.186;5.720;2023-04-03T16:55:58;1.92;;;1.77;;
52974;SDS011;38839;45.186;5.720;2023-04-03T16:58:23;2.22;;;1.63;;
52974;SDS011;38839;45.186;5.720;2023-04-03T17:00:49;2.40;;;1.67;;
52974;SDS011;38839;45.186;5.720;2023-04-03T17:03:15;2.55;;;2.10;;
52974;SDS011;38839;45.186;5.720;2023-04-03T17:05:40;1.80;;;1.42;;